sensor_id;sensor_type;location;lat;lon;timestamp;pressure;altitude;pressure_sealevel;temperature;humidity
23589;BME280;11972;48.078;11.876;2022-11-20T00:00:11;94835.47;;;4.23;100.00
23589;BME280;11972;48.078;11.876;2022-11-20T00:04:11;94837.63;;;4.28;100.00
23589;BME280;11972;48.078;11.876;2022-11-20T00:08:12;94831.56;;;4.28;100.00
23589;BME280;11972;48.078;11.876;2022-11-20T00:12:12;94838.94;;;4.24;100.00
23589;BME280;11972;48.078;11.876;2022-11-20T00:16:15;94834.81;;;4.13;100.00
23589;BME280;11972;48.078;11.876;2022-11-20T00:20:16;94839.84;;;4.07;100.00
23589;BME280;11972;48.078;11.876;2022-11-20T00:24:16;94847.72;;;4.15;100.00
23589;BME280;11972;48.078;11.876;2022-11-20T00:28:17;94848.72;;;4.22;100.00
23589;BME280;11972;48.078;11.876;2022-11-20T00:32:17;94841.06;;;4.29;100.00
23589;BME280;11972;48.078;11.876;2022-11-20T00:36:20;94847.44;;;4.34;100.00
23589;BME280;11972;48.078;11.876;2022-11-20T00:40:20;94842.53;;;4.39;100.00
23589;BME280;11972;48.078;11.876;2022-11-20T00:44:21;94850.88;;;4.43;100.00
23589;BME280;11972;48.078;11.876;2022-11-20T00:48:21;94855.00;;;4.45;100.00
23589;BME280;11972;48.078;11.876;2022-11-20T00:52:22;94859.91;;;4.48;100.00
23589;BME280;11972;48.078;11.876;2022-11-20T00:56:23;94860.53;;;4.51;100.00
23589;BME280;11972;48.078;11.876;2022-11-20T01:00:23;94857.63;;;4.54;100.00
23589;BME280;11972;48.078;11.876;2022-11-20T01:04:23;94873.00;;;4.57;100.00
23589;BME280;11972;48.078;11.876;2022-11-20T01:08:24;94865.28;;;4.55;100.00
23589;BME280;11972;48.078;11.876;2022-11-20T01:12:24;94874.28;;;4.53;100.00
23589;BME280;11972;48.078;11.876;2022-11-20T01:20:36;94879.16;;;4.47;100.00
23589;BME280;11972;48.078;11.876;2022-11-20T01:24:36;94874.75;;;4.48;100.00
23589;BME280;11972;48.078;11.876;2022-11-20T01:28:37;94877.53;;;4.46;100.00
23589;BME280;11972;48.078;11.876;2022-11-20T01:32:38;94881.13;;;4.45;100.00
23589;BME280;11972;48.078;11.876;2022-11-20T01:36:39;94874.28;;;4.44;100.00
23589;BME280;11972;48.078;11.876;2022-11-20T01:40:39;94868.38;;;4.42;100.00
23589;BME280;11972;48.078;11.876;2022-11-20T01:52:56;94876.22;;;4.42;100.00
23589;BME280;11972;48.078;11.876;2022-11-20T01:56:59;94879.50;;;4.44;100.00
23589;BME280;11972;48.078;11.876;2022-11-20T02:01:00;94878.53;;;4.45;100.00
23589;BME280;11972;48.078;11.876;2022-11-20T02:05:09;94870.00;;;4.43;100.00
23589;BME280;11972;48.078;11.876;2022-11-20T02:09:12;94878.84;;;4.42;100.00
23589;BME280;11972;48.078;11.876;2022-11-20T02:13:12;94876.88;;;4.44;100.00
23589;BME280;11972;48.078;11.876;2022-11-20T02:17:31;94879.50;;;4.44;100.00
23589;BME280;11972;48.078;11.876;2022-11-20T02:25:51;94873.59;;;4.42;100.00
23589;BME280;11972;48.078;11.876;2022-11-20T02:29:53;94877.22;;;4.41;100.00
23589;BME280;11972;48.078;11.876;2022-11-20T02:33:58;94885.03;;;4.41;100.00
23589;BME280;11972;48.078;11.876;2022-11-20T02:38:01;94884.06;;;4.42;100.00
23589;BME280;11972;48.078;11.876;2022-11-20T02:42:02;94891.59;;;4.45;100.00
23589;BME280;11972;48.078;11.876;2022-11-20T02:46:03;94888.00;;;4.46;100.00
23589;BME280;11972;48.078;11.876;2022-11-20T02:50:04;94884.09;;;4.51;100.00
23589;BME280;11972;48.078;11.876;2022-11-20T02:54:05;94879.19;;;4.56;100.00
23589;BME280;11972;48.078;11.876;2022-11-20T02:58:05;94880.00;;;4.64;100.00
23589;BME280;11972;48.078;11.876;2022-11-20T03:02:06;94878.88;;;4.75;100.00
23589;BME280;11972;48.078;11.876;2022-11-20T03:06:06;94877.91;;;4.84;100.00
23589;BME280;11972;48.078;11.876;2022-11-20T03:10:08;94879.41;;;4.87;100.00
23589;BME280;11972;48.078;11.876;2022-11-20T03:14:08;94876.28;;;4.91;100.00
23589;BME280;11972;48.078;11.876;2022-11-20T03:18:09;94873.50;;;4.93;100.00
23589;BME280;11972;48.078;11.876;2022-11-20T03:22:09;94869.06;;;4.93;100.00
23589;BME280;11972;48.078;11.876;2022-11-20T03:26:16;94864.19;;;4.90;100.00
23589;BME280;11972;48.078;11.876;2022-11-20T03:30:17;94871.38;;;4.88;100.00
23589;BME280;11972;48.078;11.876;2022-11-20T03:34:17;94874.66;;;4.90;100.00
23589;BME280;11972;48.078;11.876;2022-11-20T03:38:18;94872.03;;;4.90;100.00
23589;BME280;11972;48.078;11.876;2022-11-20T03:42:18;94870.06;;;4.92;100.00
23589;BME280;11972;48.078;11.876;2022-11-20T03:46:37;94874.31;;;4.93;100.00
23589;BME280;11972;48.078;11.876;2022-11-20T03:50:37;94876.09;;;4.93;100.00
23589;BME280;11972;48.078;11.876;2022-11-20T03:54:38;94877.59;;;4.95;100.00
23589;BME280;11972;48.078;11.876;2022-11-20T03:58:39;94880.03;;;4.97;100.00
23589;BME280;11972;48.078;11.876;2022-11-20T04:02:40;94872.19;;;4.97;100.00
23589;BME280;11972;48.078;11.876;2022-11-20T04:06:40;94868.94;;;4.95;100.00
23589;BME280;11972;48.078;11.876;2022-11-20T04:10:41;94864.19;;;4.90;100.00
23589;BME280;11972;48.078;11.876;2022-11-20T04:14:41;94875.63;;;4.89;100.00
23589;BME280;11972;48.078;11.876;2022-11-20T04:18:41;94876.91;;;4.85;100.00
23589;BME280;11972;48.078;11.876;2022-11-20T04:22:43;94877.59;;;4.79;100.00
23589;BME280;11972;48.078;11.876;2022-11-20T04:26:43;94879.06;;;4.73;100.00
23589;BME280;11972;48.078;11.876;2022-11-20T04:30:43;94882.63;;;4.72;100.00
23589;BME280;11972;48.078;11.876;2022-11-20T04:34:44;94887.06;;;4.72;100.00
23589;BME280;11972;48.078;11.876;2022-11-20T04:38:45;94882.13;;;4.69;100.00
23589;BME280;11972;48.078;11.876;2022-11-20T04:42:45;94889.03;;;4.70;100.00
23589;BME280;11972;48.078;11.876;2022-11-20T04:46:46;94888.53;;;4.66;100.00
23589;BME280;11972;48.078;11.876;2022-11-20T04:50:46;94885.09;;;4.66;100.00
23589;BME280;11972;48.078;11.876;2022-11-20T04:54:46;94884.13;;;4.67;100.00
23589;BME280;11972;48.078;11.876;2022-11-20T04:58:47;94881.66;;;4.65;100.00
23589;BME280;11972;48.078;11.876;2022-11-20T05:02:47;94882.47;;;4.66;100.00
23589;BME280;11972;48.078;11.876;2022-11-20T05:06:49;94881.81;;;4.64;100.00
23589;BME280;11972;48.078;11.876;2022-11-20T05:10:49;94879.19;;;4.64;100.00
23589;BME280;11972;48.078;11.876;2022-11-20T05:14:50;94885.25;;;4.64;100.00
23589;BME280;11972;48.078;11.876;2022-11-20T05:18:51;94880.81;;;4.65;100.00
23589;BME280;11972;48.078;11.876;2022-11-20T05:22:52;94882.47;;;4.66;100.00
23589;BME280;11972;48.078;11.876;2022-11-20T05:26:52;94882.47;;;4.66;100.00
23589;BME280;11972;48.078;11.876;2022-11-20T05:30:52;94892.28;;;4.64;100.00
23589;BME280;11972;48.078;11.876;2022-11-20T05:34:53;94891.63;;;4.62;100.00
23589;BME280;11972;48.078;11.876;2022-11-20T05:38:53;94886.41;;;4.62;100.00
23589;BME280;11972;48.078;11.876;2022-11-20T05:42:53;94889.97;;;4.61;100.00
23589;BME280;11972;48.078;11.876;2022-11-20T05:46:54;94895.19;;;4.61;100.00
23589;BME280;11972;48.078;11.876;2022-11-20T05:50:57;94888.50;;;4.58;100.00
23589;BME280;11972;48.078;11.876;2022-11-20T05:54:58;94893.91;;;4.57;100.00
23589;BME280;11972;48.078;11.876;2022-11-20T05:58:58;94890.00;;;4.53;100.00
23589;BME280;11972;48.078;11.876;2022-11-20T06:02:58;94894.53;;;4.51;100.00
23589;BME280;11972;48.078;11.876;2022-11-20T06:06:59;94904.19;;;4.50;100.00
23589;BME280;11972;48.078;11.876;2022-11-20T06:11:07;94900.91;;;4.48;100.00
23589;BME280;11972;48.078;11.876;2022-11-20T06:15:08;94901.06;;;4.46;100.00
23589;BME280;11972;48.078;11.876;2022-11-20T06:19:08;94892.72;;;4.43;100.00
23589;BME280;11972;48.078;11.876;2022-11-20T06:23:09;94894.03;;;4.39;100.00
23589;BME280;11972;48.078;11.876;2022-11-20T06:27:09;94899.75;;;4.42;100.00
23589;BME280;11972;48.078;11.876;2022-11-20T06:31:11;94891.59;;;4.45;100.00
23589;BME280;11972;48.078;11.876;2022-11-20T06:35:12;94898.78;;;4.43;100.00
23589;BME280;11972;48.078;11.876;2022-11-20T06:39:12;94902.34;;;4.34;100.00
23589;BME280;11972;48.078;11.876;2022-11-20T06:43:12;94906.53;;;4.19;100.00
23589;BME280;11972;48.078;11.876;2022-11-20T06:47:13;94918.88;;;4.01;100.00
23589;BME280;11972;48.078;11.876;2022-11-20T06:51:13;94914.53;;;3.75;100.00
23589;BME280;11972;48.078;11.876;2022-11-20T06:55:14;94923.53;;;3.55;100.00
23589;BME280;11972;48.078;11.876;2022-11-20T06:59:14;94933.25;;;3.44;100.00
23589;BME280;11972;48.078;11.876;2022-11-20T07:03:15;94928.72;;;3.46;100.00
23589;BME280;11972;48.078;11.876;2022-11-20T07:07:16;94932.94;;;3.47;100.00
23589;BME280;11972;48.078;11.876;2022-11-20T07:11:17;94937.34;;;3.47;100.00
23589;BME280;11972;48.078;11.876;2022-11-20T07:15:20;94940.53;;;3.59;100.00
23589;BME280;11972;48.078;11.876;2022-11-20T07:19:23;94937.66;;;3.70;100.00
23589;BME280;11972;48.078;11.876;2022-11-20T07:23:26;94932.84;;;3.83;100.00
23589;BME280;11972;48.078;11.876;2022-11-20T07:27:30;94938.63;;;4.03;100.00
23589;BME280;11972;48.078;11.876;2022-11-20T07:31:32;94945.44;;;4.22;100.00
23589;BME280;11972;48.078;11.876;2022-11-20T07:35:33;94951.84;;;4.36;100.00
23589;BME280;11972;48.078;11.876;2022-11-20T07:39:34;94938.66;;;4.45;100.00
23589;BME280;11972;48.078;11.876;2022-11-20T07:43:34;94941.00;;;4.65;100.00
23589;BME280;11972;48.078;11.876;2022-11-20T07:47:38;94943.34;;;5.01;100.00
23589;BME280;11972;48.078;11.876;2022-11-20T07:51:38;94940.09;;;5.31;100.00
23589;BME280;11972;48.078;11.876;2022-11-20T07:55:38;94946.28;;;5.55;100.00
23589;BME280;11972;48.078;11.876;2022-11-20T07:59:39;94938.91;;;5.66;100.00
23589;BME280;11972;48.078;11.876;2022-11-20T08:03:39;94939.09;;;5.73;100.00
23589;BME280;11972;48.078;11.876;2022-11-20T08:07:42;94944.81;;;5.77;100.00
23589;BME280;11972;48.078;11.876;2022-11-20T08:11:42;94938.06;;;5.82;100.00
23589;BME280;11972;48.078;11.876;2022-11-20T08:16:01;94936.94;;;5.85;100.00
23589;BME280;11972;48.078;11.876;2022-11-20T08:20:01;94940.00;;;5.88;100.00
23589;BME280;11972;48.078;11.876;2022-11-20T08:24:02;94939.38;;;5.94;100.00
23589;BME280;11972;48.078;11.876;2022-11-20T08:28:08;94941.03;;;5.95;100.00
23589;BME280;11972;48.078;11.876;2022-11-20T08:32:08;94943.31;;;5.99;100.00
23589;BME280;11972;48.078;11.876;2022-11-20T08:36:09;94937.75;;;6.02;100.00
23589;BME280;11972;48.078;11.876;2022-11-20T08:40:10;94938.53;;;6.10;100.00
23589;BME280;11972;48.078;11.876;2022-11-20T08:44:11;94942.59;;;6.13;100.00
23589;BME280;11972;48.078;11.876;2022-11-20T08:48:11;94946.88;;;6.14;100.00
23589;BME280;11972;48.078;11.876;2022-11-20T08:52:12;94941.75;;;6.20;100.00
23589;BME280;11972;48.078;11.876;2022-11-20T08:56:12;94939.78;;;6.31;100.00
23589;BME280;11972;48.078;11.876;2022-11-20T09:00:13;94938.56;;;6.41;100.00
23589;BME280;11972;48.078;11.876;2022-11-20T09:04:14;94938.50;;;6.58;100.00
23589;BME280;11972;48.078;11.876;2022-11-20T09:08:14;94941.69;;;6.76;100.00
23589;BME280;11972;48.078;11.876;2022-11-20T09:12:14;94933.88;;;6.91;100.00
23589;BME280;11972;48.078;11.876;2022-11-20T09:16:15;94936.56;;;7.06;100.00
23589;BME280;11972;48.078;11.876;2022-11-20T09:20:16;94931.59;;;7.11;100.00
23589;BME280;11972;48.078;11.876;2022-11-20T09:24:16;94932.44;;;7.11;100.00
23589;BME280;11972;48.078;11.876;2022-11-20T09:28:16;94928.97;;;7.11;100.00
23589;BME280;11972;48.078;11.876;2022-11-20T09:32:18;94936.22;;;7.09;100.00
23589;BME280;11972;48.078;11.876;2022-11-20T09:36:18;94924.78;;;7.02;100.00
23589;BME280;11972;48.078;11.876;2022-11-20T09:40:25;94924.09;;;7.08;100.00
23589;BME280;11972;48.078;11.876;2022-11-20T09:57:37;94921.50;;;7.45;100.00
23589;BME280;11972;48.078;11.876;2022-11-20T10:01:39;94906.22;;;7.64;100.00
23589;BME280;11972;48.078;11.876;2022-11-20T10:05:47;94901.88;;;7.86;100.00
23589;BME280;11972;48.078;11.876;2022-11-20T10:09:53;94892.38;;;8.00;100.00
23589;BME280;11972;48.078;11.876;2022-11-20T10:14:29;94898.06;;;8.18;100.00
23589;BME280;11972;48.078;11.876;2022-11-20T10:18:49;94887.38;;;8.19;100.00
23589;BME280;11972;48.078;11.876;2022-11-20T10:27:52;94890.19;;;8.18;100.00
23589;BME280;11972;48.078;11.876;2022-11-20T10:32:00;94888.56;;;8.17;100.00
23589;BME280;11972;48.078;11.876;2022-11-20T10:40:22;94888.81;;;8.52;100.00
23589;BME280;11972;48.078;11.876;2022-11-20T10:44:28;94876.03;;;8.49;100.00
23589;BME280;11972;48.078;11.876;2022-11-20T10:48:48;94875.28;;;8.55;100.00
23589;BME280;11972;48.078;11.876;2022-11-20T10:53:06;94879.81;;;8.61;100.00
23589;BME280;11972;48.078;11.876;2022-11-20T11:01:52;94862.91;;;8.70;100.00
23589;BME280;11972;48.078;11.876;2022-11-20T11:06:33;94853.00;;;8.93;100.00
23589;BME280;11972;48.078;11.876;2022-11-20T11:10:53;94854.63;;;9.16;100.00
23589;BME280;11972;48.078;11.876;2022-11-20T11:14:56;94849.44;;;9.51;100.00
23589;BME280;11972;48.078;11.876;2022-11-20T11:19:06;94838.91;;;9.29;100.00
23589;BME280;11972;48.078;11.876;2022-11-20T11:23:32;94847.34;;;8.97;100.00
23589;BME280;11972;48.078;11.876;2022-11-20T11:27:34;94849.09;;;8.68;100.00
23589;BME280;11972;48.078;11.876;2022-11-20T11:31:35;94848.47;;;8.44;100.00
23589;BME280;11972;48.078;11.876;2022-11-20T11:35:44;94848.69;;;8.35;100.00
23589;BME280;11972;48.078;11.876;2022-11-20T11:39:46;94849.34;;;8.22;100.00
23589;BME280;11972;48.078;11.876;2022-11-20T11:43:52;94843.13;;;7.93;100.00
23589;BME280;11972;48.078;11.876;2022-11-20T11:48:12;94844.59;;;7.81;100.00
23589;BME280;11972;48.078;11.876;2022-11-20T11:52:17;94848.41;;;7.79;100.00
23589;BME280;11972;48.078;11.876;2022-11-20T11:56:20;94835.69;;;7.97;100.00
23589;BME280;11972;48.078;11.876;2022-11-20T12:00:21;94838.78;;;8.15;100.00
23589;BME280;11972;48.078;11.876;2022-11-20T12:08:43;94840.28;;;8.25;100.00
23589;BME280;11972;48.078;11.876;2022-11-20T12:12:48;94838.00;;;8.36;100.00
23589;BME280;11972;48.078;11.876;2022-11-20T12:16:50;94836.44;;;8.57;100.00
23589;BME280;11972;48.078;11.876;2022-11-20T12:20:59;94828.78;;;8.62;100.00
23589;BME280;11972;48.078;11.876;2022-11-20T12:25:08;94826.41;;;8.67;100.00
23589;BME280;11972;48.078;11.876;2022-11-20T12:29:42;94828.25;;;8.52;100.00
23589;BME280;11972;48.078;11.876;2022-11-20T12:38:19;94831.19;;;8.57;100.00
23589;BME280;11972;48.078;11.876;2022-11-20T12:42:44;94853.78;;;8.36;100.00
23589;BME280;11972;48.078;11.876;2022-11-20T12:47:24;94849.84;;;7.14;100.00
23589;BME280;11972;48.078;11.876;2022-11-20T13:00:21;94846.59;;;6.12;100.00
23589;BME280;11972;48.078;11.876;2022-11-20T13:04:50;94850.31;;;5.70;100.00
23589;BME280;11972;48.078;11.876;2022-11-20T13:08:56;94864.09;;;5.72;100.00
23589;BME280;11972;48.078;11.876;2022-11-20T13:13:01;94827.22;;;5.73;100.00
23589;BME280;11972;48.078;11.876;2022-11-20T13:17:10;94843.03;;;5.88;100.00
23589;BME280;11972;48.078;11.876;2022-11-20T13:21:20;94849.56;;;6.01;100.00
23589;BME280;11972;48.078;11.876;2022-11-20T13:29:22;94833.09;;;6.23;100.00
23589;BME280;11972;48.078;11.876;2022-11-20T13:33:37;94837.06;;;6.19;100.00
23589;BME280;11972;48.078;11.876;2022-11-20T13:37:38;94838.97;;;6.25;100.00
23589;BME280;11972;48.078;11.876;2022-11-20T13:41:39;94828.97;;;6.29;100.00
23589;BME280;11972;48.078;11.876;2022-11-20T13:45:40;94841.63;;;6.17;100.00
23589;BME280;11972;48.078;11.876;2022-11-20T13:49:41;94840.13;;;5.83;100.00
23589;BME280;11972;48.078;11.876;2022-11-20T14:02:17;94827.84;;;5.20;100.00
23589;BME280;11972;48.078;11.876;2022-11-20T14:06:29;94828.19;;;5.09;100.00
23589;BME280;11972;48.078;11.876;2022-11-20T14:10:31;94833.09;;;5.04;100.00
23589;BME280;11972;48.078;11.876;2022-11-20T14:14:33;94828.50;;;5.06;100.00
23589;BME280;11972;48.078;11.876;2022-11-20T14:18:33;94830.47;;;5.12;100.00
23589;BME280;11972;48.078;11.876;2022-11-20T14:22:34;94825.88;;;5.14;100.00
23589;BME280;11972;48.078;11.876;2022-11-20T14:26:34;94830.66;;;5.18;100.00
23589;BME280;11972;48.078;11.876;2022-11-20T14:30:47;94833.09;;;5.20;100.00
23589;BME280;11972;48.078;11.876;2022-11-20T14:34:49;94832.75;;;5.23;100.00
23589;BME280;11972;48.078;11.876;2022-11-20T14:38:51;94824.41;;;5.19;100.00
23589;BME280;11972;48.078;11.876;2022-11-20T14:42:53;94823.44;;;5.20;100.00
23589;BME280;11972;48.078;11.876;2022-11-20T14:46:55;94830.47;;;5.20;100.00
23589;BME280;11972;48.078;11.876;2022-11-20T14:50:55;94829.47;;;5.21;100.00
23589;BME280;11972;48.078;11.876;2022-11-20T14:54:57;94828.19;;;5.17;100.00
23589;BME280;11972;48.078;11.876;2022-11-20T14:59:01;94828.84;;;5.11;100.00
23589;BME280;11972;48.078;11.876;2022-11-20T15:03:01;94829.66;;;5.11;100.00
23589;BME280;11972;48.078;11.876;2022-11-20T15:07:02;94828.19;;;5.09;100.00
23589;BME280;11972;48.078;11.876;2022-11-20T15:11:02;94840.78;;;5.05;100.00
23589;BME280;11972;48.078;11.876;2022-11-20T15:15:03;94838.00;;;5.07;100.00
23589;BME280;11972;48.078;11.876;2022-11-20T15:19:16;94829.19;;;5.08;100.00
23589;BME280;11972;48.078;11.876;2022-11-20T15:23:18;94836.34;;;5.06;100.00
23589;BME280;11972;48.078;11.876;2022-11-20T15:27:19;94838.34;;;5.04;100.00
23589;BME280;11972;48.078;11.876;2022-11-20T15:31:22;94825.88;;;5.06;100.00
23589;BME280;11972;48.078;11.876;2022-11-20T15:35:22;94819.34;;;5.02;100.00
23589;BME280;11972;48.078;11.876;2022-11-20T15:39:23;94811.34;;;5.03;100.00
23589;BME280;11972;48.078;11.876;2022-11-20T15:43:23;94815.91;;;5.01;100.00
23589;BME280;11972;48.078;11.876;2022-11-20T15:47:33;94805.31;;;5.03;100.00
23589;BME280;11972;48.078;11.876;2022-11-20T15:51:36;94808.56;;;5.05;100.00
23589;BME280;11972;48.078;11.876;2022-11-20T15:55:37;94811.81;;;5.23;100.00
23589;BME280;11972;48.078;11.876;2022-11-20T15:59:37;94809.47;;;5.44;100.00
23589;BME280;11972;48.078;11.876;2022-11-20T16:03:39;94808.16;;;5.48;100.00
23589;BME280;11972;48.078;11.876;2022-11-20T16:07:40;94817.47;;;5.43;100.00
23589;BME280;11972;48.078;11.876;2022-11-20T16:11:40;94810.16;;;5.22;100.00
23589;BME280;11972;48.078;11.876;2022-11-20T16:15:41;94813.16;;;4.94;100.00
23589;BME280;11972;48.078;11.876;2022-11-20T16:19:47;94808.56;;;4.80;100.00
23589;BME280;11972;48.078;11.876;2022-11-20T16:23:48;94806.63;;;4.74;100.00
23589;BME280;11972;48.078;11.876;2022-11-20T16:27:48;94803.03;;;4.67;100.00
23589;BME280;11972;48.078;11.876;2022-11-20T16:31:48;94800.41;;;4.67;100.00
23589;BME280;11972;48.078;11.876;2022-11-20T16:35:49;94798.09;;;4.72;100.00
23589;BME280;11972;48.078;11.876;2022-11-20T16:39:49;94799.72;;;4.65;100.00
23589;BME280;11972;48.078;11.876;2022-11-20T16:43:52;94805.63;;;4.51;100.00
23589;BME280;11972;48.078;11.876;2022-11-20T16:47:53;94800.56;;;4.41;100.00
23589;BME280;11972;48.078;11.876;2022-11-20T16:51:53;94794.16;;;4.27;100.00
23589;BME280;11972;48.078;11.876;2022-11-20T16:55:53;94795.56;;;3.97;100.00
23589;BME280;11972;48.078;11.876;2022-11-20T16:59:54;94792.53;;;3.67;100.00
23589;BME280;11972;48.078;11.876;2022-11-20T17:04:02;94792.41;;;3.35;100.00
23589;BME280;11972;48.078;11.876;2022-11-20T17:08:03;94789.31;;;3.05;100.00
23589;BME280;11972;48.078;11.876;2022-11-20T17:12:04;94784.75;;;2.81;100.00
23589;BME280;11972;48.078;11.876;2022-11-20T17:16:07;94784.63;;;2.65;100.00
23589;BME280;11972;48.078;11.876;2022-11-20T17:20:08;94782.78;;;2.57;100.00
23589;BME280;11972;48.078;11.876;2022-11-20T17:24:10;94774.53;;;2.44;100.00
23589;BME280;11972;48.078;11.876;2022-11-20T17:28:11;94773.13;;;2.32;100.00
23589;BME280;11972;48.078;11.876;2022-11-20T17:32:11;94773.78;;;2.16;100.00
23589;BME280;11972;48.078;11.876;2022-11-20T17:36:14;94780.47;;;2.01;100.00
23589;BME280;11972;48.078;11.876;2022-11-20T17:40:14;94772.50;;;1.84;100.00
23589;BME280;11972;48.078;11.876;2022-11-20T17:44:15;94775.75;;;1.68;100.00
23589;BME280;11972;48.078;11.876;2022-11-20T17:48:15;94773.66;;;1.54;100.00
23589;BME280;11972;48.078;11.876;2022-11-20T17:52:15;94764.41;;;1.42;100.00
23589;BME280;11972;48.078;11.876;2022-11-20T17:56:16;94770.09;;;1.28;100.00
23589;BME280;11972;48.078;11.876;2022-11-20T18:00:35;94769.88;;;1.11;100.00
23589;BME280;11972;48.078;11.876;2022-11-20T18:04:36;94779.22;;;0.94;100.00
23589;BME280;11972;48.078;11.876;2022-11-20T18:08:36;94774.75;;;0.87;100.00
23589;BME280;11972;48.078;11.876;2022-11-20T18:12:37;94774.22;;;0.83;100.00
23589;BME280;11972;48.078;11.876;2022-11-20T18:16:43;94765.06;;;0.79;100.00
23589;BME280;11972;48.078;11.876;2022-11-20T18:20:43;94775.88;;;0.74;100.00
23589;BME280;11972;48.078;11.876;2022-11-20T18:24:44;94771.50;;;0.75;100.00
23589;BME280;11972;48.078;11.876;2022-11-20T18:28:45;94770.91;;;0.81;100.00
23589;BME280;11972;48.078;11.876;2022-11-20T18:32:45;94767.34;;;0.92;100.00
23589;BME280;11972;48.078;11.876;2022-11-20T18:36:46;94773.91;;;0.96;100.00
23589;BME280;11972;48.078;11.876;2022-11-20T18:40:46;94764.84;;;1.00;100.00
23589;BME280;11972;48.078;11.876;2022-11-20T18:44:46;94760.84;;;1.06;100.00
23589;BME280;11972;48.078;11.876;2022-11-20T18:48:50;94749.72;;;1.13;100.00
23589;BME280;11972;48.078;11.876;2022-11-20T18:52:50;94742.75;;;1.14;100.00
23589;BME280;11972;48.078;11.876;2022-11-20T18:56:51;94743.56;;;1.14;100.00
23589;BME280;11972;48.078;11.876;2022-11-20T19:00:51;94740.72;;;1.08;100.00
23589;BME280;11972;48.078;11.876;2022-11-20T19:04:51;94735.31;;;0.91;100.00
23589;BME280;11972;48.078;11.876;2022-11-20T19:08:52;94724.56;;;0.77;100.00
23589;BME280;11972;48.078;11.876;2022-11-20T19:12:52;94726.81;;;0.62;100.00
23589;BME280;11972;48.078;11.876;2022-11-20T19:16:53;94716.41;;;0.52;100.00
23589;BME280;11972;48.078;11.876;2022-11-20T19:20:53;94714.50;;;0.44;100.00
23589;BME280;11972;48.078;11.876;2022-11-20T19:24:53;94718.47;;;0.48;100.00
23589;BME280;11972;48.078;11.876;2022-11-20T19:28:54;94714.63;;;0.53;100.00
23589;BME280;11972;48.078;11.876;2022-11-20T19:32:55;94705.91;;;0.54;100.00
23589;BME280;11972;48.078;11.876;2022-11-20T19:36:57;94696.44;;;0.53;100.00
23589;BME280;11972;48.078;11.876;2022-11-20T19:40:59;94704.66;;;0.58;100.00
23589;BME280;11972;48.078;11.876;2022-11-20T19:44:59;94693.69;;;0.64;100.00
23589;BME280;11972;48.078;11.876;2022-11-20T19:49:00;94703.38;;;0.71;100.00
23589;BME280;11972;48.078;11.876;2022-11-20T19:53:00;94696.22;;;0.83;100.00
23589;BME280;11972;48.078;11.876;2022-11-20T19:57:01;94689.47;;;0.90;100.00
23589;BME280;11972;48.078;11.876;2022-11-20T20:01:21;94678.34;;;0.98;100.00
23589;BME280;11972;48.078;11.876;2022-11-20T20:05:22;94678.88;;;1.02;100.00
23589;BME280;11972;48.078;11.876;2022-11-20T20:09:23;94683.00;;;1.04;100.00
23589;BME280;11972;48.078;11.876;2022-11-20T20:13:25;94684.88;;;1.12;100.00
23589;BME280;11972;48.078;11.876;2022-11-20T20:17:26;94678.41;;;1.16;100.00
23589;BME280;11972;48.078;11.876;2022-11-20T20:21:27;94668.66;;;1.18;100.00
23589;BME280;11972;48.078;11.876;2022-11-20T20:25:29;94664.28;;;1.18;100.00
23589;BME280;11972;48.078;11.876;2022-11-20T20:29:29;94663.34;;;1.19;100.00
23589;BME280;11972;48.078;11.876;2022-11-20T20:33:30;94665.09;;;1.19;100.00
23589;BME280;11972;48.078;11.876;2022-11-20T20:37:30;94658.13;;;1.19;100.00
23589;BME280;11972;48.078;11.876;2022-11-20T20:41:31;94655.66;;;1.18;100.00
23589;BME280;11972;48.078;11.876;2022-11-20T20:45:31;94657.28;;;1.19;100.00
23589;BME280;11972;48.078;11.876;2022-11-20T20:49:32;94655.47;;;1.29;100.00
23589;BME280;11972;48.078;11.876;2022-11-20T20:53:33;94649.44;;;1.46;100.00
23589;BME280;11972;48.078;11.876;2022-11-20T20:57:33;94645.09;;;1.65;100.00
23589;BME280;11972;48.078;11.876;2022-11-20T21:01:33;94627.00;;;1.81;100.00
23589;BME280;11972;48.078;11.876;2022-11-20T21:05:34;94632.75;;;1.93;100.00
23589;BME280;11972;48.078;11.876;2022-11-20T21:09:34;94623.50;;;1.90;100.00
23589;BME280;11972;48.078;11.876;2022-11-20T21:13:35;94622.44;;;1.83;100.00
23589;BME280;11972;48.078;11.876;2022-11-20T21:17:36;94620.06;;;1.72;100.00
23589;BME280;11972;48.078;11.876;2022-11-20T21:21:37;94622.66;;;1.72;100.00
23589;BME280;11972;48.078;11.876;2022-11-20T21:25:59;94607.44;;;1.77;100.00
23589;BME280;11972;48.078;11.876;2022-11-20T21:30:01;94610.09;;;1.85;100.00
23589;BME280;11972;48.078;11.876;2022-11-20T21:34:01;94617.66;;;1.96;100.00
23589;BME280;11972;48.078;11.876;2022-11-20T21:38:02;94611.09;;;2.10;100.00
23589;BME280;11972;48.078;11.876;2022-11-20T21:42:02;94611.97;;;2.19;100.00
23589;BME280;11972;48.078;11.876;2022-11-20T21:46:08;94606.81;;;2.27;100.00
23589;BME280;11972;48.078;11.876;2022-11-20T21:50:09;94609.81;;;2.40;100.00
23589;BME280;11972;48.078;11.876;2022-11-20T21:54:10;94618.06;;;2.62;100.00
23589;BME280;11972;48.078;11.876;2022-11-20T21:58:13;94624.50;;;2.84;100.00
23589;BME280;11972;48.078;11.876;2022-11-20T22:02:13;94634.69;;;3.03;100.00
23589;BME280;11972;48.078;11.876;2022-11-20T22:06:14;94646.38;;;3.25;100.00
23589;BME280;11972;48.078;11.876;2022-11-20T22:10:14;94661.78;;;3.61;100.00
23589;BME280;11972;48.078;11.876;2022-11-20T22:14:15;94676.19;;;3.89;100.00
23589;BME280;11972;48.078;11.876;2022-11-20T22:18:21;94688.63;;;4.04;100.00
23589;BME280;11972;48.078;11.876;2022-11-20T22:22:21;94690.75;;;4.00;100.00